Time;durP1;ratioP1;P1;durP2;ratioP2;P2;SDS_P1;SDS_P2;PMS_P1;PMS_P2;Temp;Humidity;BMP_temperature;BMP_pressure;BME280_temperature;BME280_humidity;BME280_pressure;Samples;Min_cycle;Max_cycle;Signal;HPM_P1;HPM_P2
2023/06/27 00:00:12;;;;;;;3.15;1.50;;;;;;;22.26;38.91;97595.69;6159793;22;20319;-78
2023/06/27 00:02:38;;;;;;;2.72;1.08;;;;;;;22.21;39.11;97598.50;6124677;22;20240;-78
2023/06/27 00:05:04;;;;;;;2.83;1.45;;;;;;;22.15;39.24;97602.38;6123950;22;20190;-78
2023/06/27 00:07:30;;;;;;;1.85;1.30;;;;;;;22.02;39.31;97601.41;6158882;22;20304;-78
2023/06/27 00:09:55;;;;;;;2.88;1.42;;;;;;;21.92;40.12;97601.69;6149428;22;20183;-78
2023/06/27 00:12:21;;;;;;;2.97;1.48;;;;;;;21.81;40.18;97593.22;6123741;22;20263;-78
2023/06/27 00:14:47;;;;;;;1.95;1.50;;;;;;;21.72;40.47;97597.72;6159222;22;20360;-78
2023/06/27 00:17:14;;;;;;;2.38;1.52;;;;;;;21.64;40.93;97595.81;6148553;22;20139;-77
2023/06/27 00:19:40;;;;;;;2.67;1.40;;;;;;;21.53;41.21;97594.56;6148797;22;20558;-79
2023/06/27 00:22:09;;;;;;;2.47;1.35;;;;;;;21.45;41.25;97601.31;6148228;22;20207;-78
2023/06/27 00:24:38;;;;;;;3.65;1.92;;;;;;;21.44;41.27;97608.50;6160606;22;20263;-78
2023/06/27 00:27:04;;;;;;;3.13;1.58;;;;;;;21.38;40.79;97607.06;6184557;22;20084;-78
2023/06/27 00:29:30;;;;;;;4.65;1.85;;;;;;;21.20;41.49;97602.75;6185270;22;20175;-78
2023/06/27 00:31:56;;;;;;;3.95;1.70;;;;;;;21.19;41.26;97611.78;6147700;22;20248;-78
2023/06/27 00:34:21;;;;;;;2.65;1.27;;;;;;;21.29;41.47;97609.66;6183656;22;20084;-80
2023/06/27 00:36:47;;;;;;;3.35;1.50;;;;;;;21.29;41.82;97614.19;6183416;22;20178;-78
2023/06/27 00:39:12;;;;;;;1.92;1.38;;;;;;;21.26;41.57;97601.53;6123949;22;20179;-78
2023/06/27 00:41:37;;;;;;;2.67;1.40;;;;;;;21.24;41.48;97611.66;6124309;22;20394;-78
2023/06/27 00:44:06;;;;;;;3.25;1.48;;;;;;;21.23;41.75;97615.38;6123375;22;20333;-79
2023/06/27 00:46:39;;;;;;;3.38;1.48;;;;;;;21.20;42.29;97611.50;6174506;22;20117;-78
2023/06/27 00:49:09;;;;;;;3.00;1.60;;;;;;;21.14;42.21;97613.47;6149670;22;20049;-79
2023/06/27 00:51:35;;;;;;;2.75;1.55;;;;;;;21.04;42.20;97621.69;6157558;22;20182;-78
2023/06/27 00:54:00;;;;;;;1.77;1.33;;;;;;;20.97;42.30;97616.00;6158025;22;20144;-78
2023/06/27 00:56:26;;;;;;;3.55;1.63;;;;;;;20.93;42.22;97617.69;6148751;22;20071;-78
2023/06/27 00:58:54;;;;;;;3.38;1.92;;;;;;;20.92;42.10;97619.56;6120341;22;20394;-78
2023/06/27 01:01:19;;;;;;;5.93;1.75;;;;;;;20.82;42.64;97609.22;6120261;22;20335;-77
2023/06/27 01:03:45;;;;;;;3.55;1.50;;;;;;;20.70;43.01;97616.88;6146802;22;20201;-86
2023/06/27 01:06:16;;;;;;;2.70;1.55;;;;;;;20.46;43.34;97574.81;6154866;22;20229;-85
2023/06/27 01:13:55;;;;;;;2.40;1.70;;;;;;;20.47;43.44;97597.53;6254909;22;20264;-85
2023/06/27 01:24:12;;;;;;;2.97;1.80;;;;;;;20.38;43.45;97611.47;6256632;22;20068;-84
2023/06/27 04:49:26;;;;;;;2.75;1.80;;;;;;;18.57;52.39;97637.81;6268737;22;20861;31
2023/06/27 06:15:18;;;;;;;6.07;1.50;;;;;;;21.20;44.85;97631.88;6243141;22;20916;-84
2023/06/27 06:17:43;;;;;;;2.80;1.60;;;;;;;21.31;44.51;97630.56;6173597;22;21006;-85
2023/06/27 06:30:29;;;;;;;3.83;2.20;;;;;;;21.82;43.67;97634.56;6232171;22;20343;-85
2023/06/27 06:32:54;;;;;;;2.97;1.88;;;;;;;21.61;42.90;97660.03;6179550;22;20030;-84
2023/06/27 06:35:19;;;;;;;2.78;1.88;;;;;;;21.34;44.36;97627.31;6190719;22;20195;-84
2023/06/27 06:37:45;;;;;;;2.40;1.55;;;;;;;21.46;44.36;97638.16;6126015;22;20198;-84
2023/06/27 06:47:55;;;;;;;2.40;1.50;;;;;;;22.11;42.27;97677.56;6236704;22;20085;-87
2023/06/27 06:50:21;;;;;;;2.83;1.63;;;;;;;22.05;41.93;97651.19;6147214;22;20178;-87
2023/06/27 06:52:46;;;;;;;3.55;1.65;;;;;;;22.18;40.43;97654.81;6131188;22;20287;-83
2023/06/27 06:55:12;;;;;;;2.70;1.67;;;;;;;22.32;40.17;97638.78;6137612;22;20247;-86
2023/06/27 06:57:37;;;;;;;1.95;1.70;;;;;;;22.40;39.67;97634.59;6174656;22;20186;-86
2023/06/27 07:00:04;;;;;;;2.25;1.70;;;;;;;22.81;39.35;97667.88;6135052;22;20139;-86
2023/06/27 07:02:29;;;;;;;2.42;1.55;;;;;;;22.94;38.84;97672.25;6189610;22;20430;-86
2023/06/27 07:04:55;;;;;;;2.22;1.80;;;;;;;22.90;38.91;97647.41;6149417;22;20297;-84
2023/06/27 07:07:23;;;;;;;2.17;1.95;;;;;;;22.98;38.16;97651.19;6157560;22;20065;-84
2023/06/27 07:09:48;;;;;;;2.97;1.30;;;;;;;23.05;38.77;97664.75;6129356;22;20213;-85
2023/06/27 07:12:14;;;;;;;2.08;1.40;;;;;;;23.10;39.66;97655.84;6135245;22;20271;-86
2023/06/27 07:14:39;;;;;;;5.35;1.73;;;;;;;22.84;39.14;97640.69;6124300;22;20172;-85
2023/06/27 07:17:05;;;;;;;3.80;1.60;;;;;;;22.79;39.45;97660.22;6151871;22;20165;-87
2023/06/27 07:22:05;;;;;;;2.28;1.50;;;;;;;22.47;39.28;97626.94;6208700;22;20303;-85
2023/06/27 07:24:31;;;;;;;3.42;1.83;;;;;;;22.56;39.05;97625.06;6174326;22;20243;-87
2023/06/27 07:29:31;;;;;;;4.18;2.00;;;;;;;22.83;38.05;97633.84;6239123;22;20253;-86
2023/06/27 07:31:57;;;;;;;2.42;1.83;;;;;;;22.87;38.80;97648.03;6168398;22;20285;-85
2023/06/27 07:34:22;;;;;;;2.75;1.30;;;;;;;22.84;39.22;97653.19;6141494;22;20072;-85
2023/06/27 07:36:47;;;;;;;3.55;1.80;;;;;;;22.76;39.10;97615.72;6141908;22;20406;-85
2023/06/27 07:41:48;;;;;;;2.85;1.38;;;;;;;23.21;38.17;97627.88;6229827;22;20210;-86
2023/06/27 07:49:24;;;;;;;2.25;1.48;;;;;;;24.06;35.95;97635.09;6264843;22;20153;-86
2023/06/27 07:51:51;;;;;;;4.05;1.50;;;;;;;23.99;36.64;97626.84;6141710;22;20060;-87
2023/06/27 07:54:17;;;;;;;1.92;1.60;;;;;;;24.06;37.34;97639.63;6176533;22;20242;-86
2023/06/27 07:56:43;;;;;;;2.95;1.67;;;;;;;24.01;35.25;97603.38;6194011;22;20158;-86
2023/06/27 07:59:08;;;;;;;3.03;1.50;;;;;;;24.62;34.01;97639.47;6146630;22;20146;-86
2023/06/27 08:04:09;;;;;;;1.73;1.50;;;;;;;24.82;34.66;97630.69;6236436;22;20292;-86
2023/06/27 08:06:34;;;;;;;5.18;1.75;;;;;;;24.71;35.39;97597.59;6130241;22;20274;-84
2023/06/27 08:09:00;;;;;;;3.00;1.50;;;;;;;25.15;34.38;97619.25;6154566;22;20345;-83
2023/06/27 08:11:25;;;;;;;3.60;1.80;;;;;;;24.97;34.50;97608.00;6128551;22;20375;-83
2023/06/27 08:13:51;;;;;;;1.98;1.58;;;;;;;24.82;34.19;97632.59;6154084;22;20285;-85
2023/06/27 08:16:16;;;;;;;2.20;1.70;;;;;;;25.36;33.21;97618.44;6131529;22;20216;-83
2023/06/27 08:18:42;;;;;;;2.03;1.70;;;;;;;25.26;33.43;97621.53;6177707;22;20318;-84
2023/06/27 08:21:07;;;;;;;4.40;1.42;;;;;;;25.58;33.03;97595.94;6136507;22;20146;-84
2023/06/27 08:23:33;;;;;;;2.38;1.58;;;;;;;25.88;32.18;97615.16;6163977;22;20117;-84
2023/06/27 08:25:58;;;;;;;2.60;1.60;;;;;;;25.99;32.11;97596.84;6167259;22;20245;-84
2023/06/27 08:28:24;;;;;;;3.05;1.88;;;;;;;26.10;31.73;97624.63;6057428;22;20177;-85
2023/06/27 08:30:49;;;;;;;2.10;1.50;;;;;;;25.94;31.47;97605.88;6090687;23;20232;-86
2023/06/27 08:33:15;;;;;;;4.15;1.65;;;;;;;25.56;33.48;97612.25;6076870;23;20146;-84
2023/06/27 08:35:40;;;;;;;2.78;1.73;;;;;;;25.62;32.48;97607.50;6112044;23;20324;-86
2023/06/27 08:38:06;;;;;;;3.20;1.63;;;;;;;25.65;32.34;97603.38;6138834;23;20177;-85
2023/06/27 08:40:38;;;;;;;2.67;2.25;;;;;;;25.83;32.07;97593.28;6106848;22;20098;-84
2023/06/27 08:43:04;;;;;;;1.77;1.23;;;;;;;25.84;32.61;97613.50;6013503;22;20281;-83
2023/06/27 08:45:31;;;;;;;3.17;1.60;;;;;;;25.78;33.70;97618.28;6109490;23;20262;-84
2023/06/27 08:47:57;;;;;;;3.17;1.75;;;;;;;25.57;34.26;97613.81;6104429;23;20184;-84
2023/06/27 08:50:23;;;;;;;2.00;1.50;;;;;;;25.96;32.52;97610.84;6109134;23;20347;-84
2023/06/27 08:52:57;;;;;;;3.45;1.38;;;;;;;25.93;32.58;97614.94;6114162;23;20188;-84
2023/06/27 08:55:28;;;;;;;3.72;1.70;;;;;;;26.07;31.99;97614.63;6113232;23;20048;-83
2023/06/27 08:57:55;;;;;;;2.10;1.40;;;;;;;25.92;31.91;97605.38;6140259;23;20205;-85
2023/06/27 09:00:22;;;;;;;3.13;1.50;;;;;;;25.71;31.80;97602.06;6164494;22;20029;-83
2023/06/27 09:02:48;;;;;;;2.78;1.40;;;;;;;25.74;31.64;97606.72;6151492;23;20184;-85
2023/06/27 09:05:15;;;;;;;3.08;1.60;;;;;;;25.57;32.04;97573.06;6124099;22;20256;-87
2023/06/27 09:07:41;;;;;;;3.55;1.30;;;;;;;25.85;32.62;97607.06;6115005;23;20199;-87
2023/06/27 09:10:08;;;;;;;2.63;1.55;;;;;;;25.78;33.55;97600.38;6150185;23;20262;-86
2023/06/27 09:12:34;;;;;;;2.90;1.65;;;;;;;25.71;32.90;97594.06;6117108;22;20358;-86
2023/06/27 09:14:59;;;;;;;2.85;1.70;;;;;;;25.59;32.93;97606.25;6084634;23;20311;-87
2023/06/27 09:17:25;;;;;;;2.88;1.45;;;;;;;25.47;33.16;97600.94;6045516;23;20259;-87
2023/06/27 09:19:51;;;;;;;2.67;1.55;;;;;;;25.66;32.79;97602.28;6050505;23;20178;-85
2023/06/27 09:22:18;;;;;;;2.55;1.33;;;;;;;25.64;32.20;97583.94;6043466;22;20352;-86
2023/06/27 09:24:44;;;;;;;2.50;1.30;;;;;;;25.89;32.33;97603.41;5978397;23;20216;-87
2023/06/27 09:27:29;;;;;;;2.38;1.50;;;;;;;25.89;31.70;97602.59;5977837;23;20213;-84
2023/06/27 09:29:59;;;;;;;2.03;1.75;;;;;;;25.77;32.38;97580.16;6080271;22;20224;-85
2023/06/27 09:32:24;;;;;;;1.98;1.27;;;;;;;25.88;32.00;97593.81;6136661;22;20329;-85
2023/06/27 09:37:19;;;;;;;2.13;1.60;;;;;;;25.96;31.97;97600.97;6009878;23;20159;-86
2023/06/27 09:39:45;;;;;;;2.80;1.60;;;;;;;26.09;31.46;97608.97;6083885;23;20177;-85
2023/06/27 09:42:10;;;;;;;3.33;1.73;;;;;;;25.96;31.18;97598.31;6056012;23;20244;-85
2023/06/27 09:44:36;;;;;;;2.28;1.85;;;;;;;25.97;31.85;97594.50;6070778;22;20319;-84
2023/06/27 09:47:04;;;;;;;2.97;1.85;;;;;;;25.77;32.54;97572.16;6075647;23;20256;-84
2023/06/27 09:49:30;;;;;;;2.90;1.88;;;;;;;25.80;32.65;97589.38;6098701;22;20340;-85
2023/06/27 09:51:55;;;;;;;1.90;1.65;;;;;;;25.73;32.10;97589.94;6091216;23;20212;-85
2023/06/27 09:54:22;;;;;;;3.50;1.60;;;;;;;25.82;31.56;97605.81;6094230;23;20080;-85
2023/06/27 09:56:52;;;;;;;2.80;1.65;;;;;;;25.68;30.95;97579.47;6112746;22;20124;-84
2023/06/27 09:59:22;;;;;;;2.75;1.55;;;;;;;25.81;30.65;97596.28;6017311;22;20299;-84
2023/06/27 10:01:49;;;;;;;1.95;1.60;;;;;;;25.65;31.39;97598.03;6122772;23;20230;-85
2023/06/27 10:04:15;;;;;;;2.13;1.73;;;;;;;25.78;31.39;97592.38;6130390;22;20294;-85
2023/06/27 10:06:41;;;;;;;2.08;1.48;;;;;;;25.92;31.92;97602.69;6059478;22;20183;-84
2023/06/27 10:09:07;;;;;;;4.07;2.00;;;;;;;25.80;30.74;97568.03;6134531;23;20219;-87
2023/06/27 10:14:08;;;;;;;2.33;1.40;;;;;;;25.98;31.08;97577.38;6202122;22;20256;-87
2023/06/27 10:16:34;;;;;;;3.13;1.48;;;;;;;25.90;32.39;97562.25;6165668;22;20432;-85
2023/06/27 10:19:00;;;;;;;5.20;1.77;;;;;;;26.12;30.49;97589.59;6166739;22;20276;-85
2023/06/27 10:21:26;;;;;;;2.17;1.42;;;;;;;26.12;30.46;97576.25;6063424;22;20049;-85
2023/06/27 10:26:27;;;;;;;3.03;1.42;;;;;;;26.18;29.42;97596.25;6228871;22;20197;-85
2023/06/27 10:28:53;;;;;;;1.88;1.17;;;;;;;26.25;28.01;97598.34;6190029;22;20162;-85
2023/06/27 10:34:04;;;;;;;1.60;1.50;;;;;;;25.86;29.76;97577.38;6219357;22;20197;-85
2023/06/27 10:36:54;;;;;;;6.35;1.88;;;;;;;26.58;28.57;97597.38;6161568;22;20072;-86
2023/06/27 10:39:30;;;;;;;2.17;1.98;;;;;;;26.73;28.42;97596.69;6191666;22;20276;-86
2023/06/27 10:42:06;;;;;;;3.00;1.52;;;;;;;26.74;29.10;97592.91;6141808;22;20215;-86
2023/06/27 10:47:24;;;;;;;4.03;1.65;;;;;;;26.80;29.13;97606.78;6121219;23;20649;-84
2023/06/27 10:49:53;;;;;;;2.67;1.70;;;;;;;26.59;29.77;97606.94;6091579;23;20368;-85
2023/06/27 10:52:25;;;;;;;1.98;1.50;;;;;;;26.50;30.41;97609.75;6071085;23;20184;-84
2023/06/27 10:55:15;;;;;;;3.70;1.83;;;;;;;26.40;31.08;97612.91;6103748;23;20590;-85
2023/06/27 10:57:45;;;;;;;2.92;1.42;;;;;;;26.38;31.48;97607.13;6107520;23;20172;-84
2023/06/27 11:00:33;;;;;;;2.45;1.58;;;;;;;26.45;31.70;97612.66;6109794;23;20235;-85
2023/06/27 11:03:03;;;;;;;3.35;1.50;;;;;;;26.31;31.18;97600.47;6106759;23;20188;-84
2023/06/27 11:05:36;;;;;;;6.35;1.65;;;;;;;26.48;31.46;97609.34;6082529;23;20218;-83
2023/06/27 11:08:01;;;;;;;4.43;2.10;;;;;;;25.95;33.40;97612.75;6100873;23;20243;-84
2023/06/27 11:10:31;;;;;;;2.25;1.50;;;;;;;25.97;32.28;97604.41;6105775;23;20002;-85
2023/06/27 11:13:21;;;;;;;2.58;1.70;;;;;;;26.29;30.94;97599.25;6048255;23;20401;-83
2023/06/27 11:15:47;;;;;;;2.08;1.42;;;;;;;26.12;29.95;97584.28;6068322;23;20228;-85
2023/06/27 11:18:15;;;;;;;4.80;1.55;;;;;;;26.28;29.79;97585.13;6056042;23;20264;-85
2023/06/27 11:20:42;;;;;;;2.55;1.85;;;;;;;26.26;30.00;97583.91;6057005;23;20474;-82
2023/06/27 11:23:07;;;;;;;2.92;1.35;;;;;;;26.48;30.54;97594.06;6072586;23;20192;-83
2023/06/27 11:25:37;;;;;;;1.98;1.50;;;;;;;26.66;30.21;97597.25;6043470;23;20408;-83
2023/06/27 11:28:03;;;;;;;2.85;1.60;;;;;;;26.32;31.14;97585.22;6039699;23;20180;-83
2023/06/27 11:30:30;;;;;;;2.92;1.70;;;;;;;26.25;31.73;97588.47;6101511;23;20180;-84
2023/06/27 11:32:56;;;;;;;3.08;1.55;;;;;;;26.33;30.59;97584.09;6075088;23;20319;-83
2023/06/27 11:35:22;;;;;;;1.90;1.70;;;;;;;26.42;30.54;97583.97;6079507;23;20311;-86
2023/06/27 11:37:52;;;;;;;4.28;1.40;;;;;;;26.49;30.07;97584.97;6087080;23;20176;-85
2023/06/27 11:40:18;;;;;;;2.75;1.48;;;;;;;26.45;29.66;97578.72;6084801;23;20154;-86
2023/06/27 11:42:43;;;;;;;3.05;1.67;;;;;;;26.51;27.74;97580.06;6049394;23;20358;-85
2023/06/27 11:45:12;;;;;;;2.35;1.60;;;;;;;26.42;28.61;97565.28;6044742;23;20172;-85
2023/06/27 11:47:38;;;;;;;2.72;1.83;;;;;;;26.54;28.84;97559.88;6105606;23;20501;-86
2023/06/27 11:50:12;;;;;;;3.15;1.65;;;;;;;26.67;27.97;97561.44;6047422;23;20189;-85
2023/06/27 11:52:38;;;;;;;1.55;1.40;;;;;;;26.56;28.62;97565.66;6083651;23;20327;-85
2023/06/27 11:55:05;;;;;;;4.55;1.58;;;;;;;26.43;29.14;97556.16;6043981;23;20307;-84
2023/06/27 11:57:42;;;;;;;2.25;1.52;;;;;;;26.34;28.64;97553.63;6081587;23;20262;-86
2023/06/27 12:00:17;;;;;;;4.05;1.50;;;;;;;26.29;29.00;97548.53;6073753;23;20196;-84
2023/06/27 12:02:48;;;;;;;2.45;1.50;;;;;;;26.29;29.34;97541.28;6079019;23;20392;-85
2023/06/27 12:05:15;;;;;;;3.33;1.67;;;;;;;26.20;28.12;97543.34;6047590;23;20145;-84
2023/06/27 12:08:08;;;;;;;2.80;1.20;;;;;;;26.06;29.30;97550.91;5459860;22;25633518;-84
2023/06/27 12:10:50;;;;;;;1.83;1.40;;;;;;;25.84;29.66;97546.81;6136252;22;20500;-85
2023/06/27 12:13:17;;;;;;;3.10;1.52;;;;;;;25.83;29.82;97546.03;6170213;22;20204;-86
2023/06/27 12:15:46;;;;;;;3.65;1.58;;;;;;;26.01;29.43;97546.56;6142048;22;20177;-86
2023/06/27 12:18:30;;;;;;;2.42;1.30;;;;;;;26.01;29.05;97540.47;6165505;22;20377;-85
2023/06/27 12:20:55;;;;;;;3.00;1.40;;;;;;;25.88;29.88;97543.13;6167806;22;20226;-86
2023/06/27 12:23:21;;;;;;;2.13;1.33;;;;;;;25.71;29.60;97543.38;6134628;22;20172;-85
2023/06/27 12:25:47;;;;;;;3.17;2.20;;;;;;;25.85;29.24;97532.38;6165619;22;20284;-84
2023/06/27 12:28:13;;;;;;;1.92;1.23;;;;;;;25.93;27.83;97518.13;6132536;22;20351;-84
2023/06/27 12:30:39;;;;;;;1.30;1.20;;;;;;;26.01;27.97;97529.78;6189456;22;20162;-85
2023/06/27 12:33:08;;;;;;;2.70;1.45;;;;;;;26.14;27.82;97523.31;6128077;22;20273;-85
2023/06/27 12:35:33;;;;;;;2.95;1.35;;;;;;;26.17;28.29;97515.41;6129366;22;20222;-85
2023/06/27 12:37:59;;;;;;;2.80;1.45;;;;;;;25.84;28.65;97514.78;6158294;22;20389;-84
2023/06/27 12:40:25;;;;;;;3.38;1.60;;;;;;;26.20;28.37;97505.97;6160868;22;20259;-85
2023/06/27 12:42:52;;;;;;;1.88;1.25;;;;;;;26.41;28.16;97507.66;6164538;22;20239;-85
2023/06/27 12:45:18;;;;;;;1.95;1.33;;;;;;;25.51;29.01;97513.81;6127839;22;20235;-82
2023/06/27 12:47:45;;;;;;;1.73;1.40;;;;;;;25.87;28.60;97509.56;6139519;22;20214;-86
2023/06/27 12:50:12;;;;;;;3.67;1.50;;;;;;;26.05;28.63;97509.34;6168096;22;20353;-86
2023/06/27 12:52:37;;;;;;;2.05;1.60;;;;;;;25.94;27.91;97487.66;6162735;22;20247;-84
2023/06/27 12:55:04;;;;;;;2.50;1.50;;;;;;;26.09;28.31;97510.97;6166532;22;20252;-84
2023/06/27 12:57:29;;;;;;;2.88;1.63;;;;;;;25.97;29.77;97503.00;6152181;22;20389;-85
2023/06/27 12:59:55;;;;;;;2.28;1.60;;;;;;;25.86;29.03;97492.00;6158444;22;20471;-82
2023/06/27 13:02:20;;;;;;;1.85;1.50;;;;;;;25.98;28.40;97510.69;6187833;22;20470;-84
2023/06/27 13:04:46;;;;;;;2.03;1.50;;;;;;;25.83;27.95;97471.34;6169033;22;20030;-84
2023/06/27 13:07:12;;;;;;;2.53;1.45;;;;;;;25.92;29.08;97509.31;6169783;22;20168;-83
2023/06/27 13:09:37;;;;;;;3.15;1.42;;;;;;;25.87;28.66;97495.44;6152457;22;20093;-85
2023/06/27 13:12:04;;;;;;;2.38;1.40;;;;;;;25.93;28.66;97481.53;6166651;22;20187;-84
2023/06/27 13:14:29;;;;;;;1.75;1.20;;;;;;;25.98;28.23;97493.91;6116414;23;20213;-85
2023/06/27 13:16:55;;;;;;;2.28;1.30;;;;;;;25.90;27.80;97482.22;6170151;23;20321;-83
2023/06/27 13:19:21;;;;;;;2.70;1.40;;;;;;;25.96;28.50;97491.56;6125679;23;20316;-83
2023/06/27 13:21:46;;;;;;;1.88;1.50;;;;;;;25.97;28.47;97487.00;6105350;23;19988;-83
2023/06/27 13:24:12;;;;;;;2.03;1.42;;;;;;;26.14;27.54;97473.38;6141827;22;20143;-85
2023/06/27 13:29:12;;;;;;;2.13;1.20;;;;;;;26.18;27.20;97444.13;6235205;22;20173;-84
2023/06/27 13:31:38;;;;;;;3.38;1.48;;;;;;;26.46;26.11;97459.34;6143661;22;20253;-84
2023/06/27 13:34:04;;;;;;;4.13;1.60;;;;;;;26.41;26.70;97447.03;6228974;22;20277;-85
2023/06/27 13:36:31;;;;;;;3.08;1.35;;;;;;;26.62;26.30;97456.72;6161810;22;20317;-84
2023/06/27 13:38:58;;;;;;;2.50;1.33;;;;;;;26.84;27.43;97448.13;6167225;22;20155;-85
2023/06/27 13:41:23;;;;;;;2.45;1.38;;;;;;;27.03;26.76;97466.16;6129129;23;20061;-84
2023/06/27 13:43:49;;;;;;;1.85;1.40;;;;;;;27.12;25.23;97457.94;6124722;23;20228;-82
2023/06/27 13:46:14;;;;;;;2.15;1.55;;;;;;;27.12;24.96;97471.31;6100935;23;20421;-82
2023/06/27 13:48:39;;;;;;;1.35;1.10;;;;;;;27.11;23.93;97453.75;6137981;22;20449;-84
2023/06/27 13:51:05;;;;;;;4.22;1.92;;;;;;;27.05;24.69;97471.91;6156266;23;20541;-85
2023/06/27 13:53:30;;;;;;;1.92;1.40;;;;;;;26.86;24.73;97448.56;6185644;22;20316;-84
2023/06/27 13:55:56;;;;;;;2.78;1.20;;;;;;;26.68;25.57;97431.31;6138887;22;20187;-84
2023/06/27 13:58:25;;;;;;;3.03;1.60;;;;;;;26.93;24.99;97458.66;6157899;23;20264;-82
2023/06/27 14:00:52;;;;;;;2.13;1.52;;;;;;;26.91;25.55;97458.22;6158534;23;20228;-86
2023/06/27 14:03:21;;;;;;;1.70;1.30;;;;;;;26.90;25.37;97451.31;6123428;23;20367;-84
2023/06/27 14:05:47;;;;;;;3.08;1.67;;;;;;;26.91;25.17;97447.53;6130940;23;20155;-84
2023/06/27 14:08:12;;;;;;;2.05;1.45;;;;;;;26.79;26.02;97435.03;6105453;23;20337;-84
2023/06/27 14:10:37;;;;;;;2.40;1.50;;;;;;;27.01;26.17;97455.03;6072189;23;20014;-84
2023/06/27 14:13:04;;;;;;;2.25;1.30;;;;;;;26.84;26.43;97431.34;6141417;22;20141;-84
2023/06/27 14:15:30;;;;;;;1.40;1.30;;;;;;;26.93;25.69;97447.19;6075642;23;20004;-85
2023/06/27 14:17:55;;;;;;;1.73;1.00;;;;;;;26.89;25.57;97428.41;6079802;23;20304;-85
2023/06/27 14:20:21;;;;;;;1.35;1.25;;;;;;;26.96;25.79;97447.28;6113037;23;20145;-84
2023/06/27 14:22:46;;;;;;;3.78;1.73;;;;;;;27.01;25.82;97443.56;6075109;23;20148;-85
2023/06/27 14:25:12;;;;;;;3.47;1.80;;;;;;;26.75;25.37;97442.19;6133296;23;20144;-85
2023/06/27 14:27:37;;;;;;;2.33;1.38;;;;;;;26.83;25.64;97446.56;6133442;23;20412;-83
2023/06/27 14:30:06;;;;;;;2.38;1.80;;;;;;;26.74;26.24;97431.84;6099206;23;20069;-84
2023/06/27 14:32:31;;;;;;;2.08;1.42;;;;;;;26.76;26.28;97446.41;6095299;23;20194;-84
2023/06/27 14:34:57;;;;;;;3.20;1.70;;;;;;;26.70;25.89;97448.56;6102130;23;20122;-85
2023/06/27 14:37:22;;;;;;;1.77;1.15;;;;;;;26.64;25.85;97441.91;6100558;23;20155;-84
2023/06/27 14:39:47;;;;;;;2.50;1.50;;;;;;;26.56;25.50;97426.78;6078986;23;20233;-84
2023/06/27 14:42:13;;;;;;;2.90;1.58;;;;;;;26.52;26.79;97441.97;6139820;22;20271;-84
2023/06/27 14:44:39;;;;;;;1.35;1.25;;;;;;;26.39;26.55;97432.47;6096247;23;20164;-84
2023/06/27 14:47:05;;;;;;;2.03;1.40;;;;;;;26.42;27.18;97431.78;6121909;22;20027;-82
2023/06/27 14:49:30;;;;;;;3.35;1.35;;;;;;;26.59;26.44;97436.78;6164685;23;20194;-85
2023/06/27 14:51:55;;;;;;;1.88;1.30;;;;;;;26.77;25.93;97437.28;6103269;23;20015;-84
2023/06/27 14:54:21;;;;;;;1.73;1.13;;;;;;;26.57;26.46;97401.66;6162004;23;20075;-84
2023/06/27 14:56:46;;;;;;;1.35;1.10;;;;;;;26.76;26.27;97422.34;6155556;23;20315;-85
2023/06/27 14:59:12;;;;;;;2.53;1.20;;;;;;;26.81;24.98;97421.34;6131033;23;20229;-85
2023/06/27 15:01:37;;;;;;;1.80;1.33;;;;;;;26.73;25.40;97412.34;6108597;23;20244;-85
2023/06/27 15:04:03;;;;;;;4.35;1.48;;;;;;;26.76;25.54;97413.56;6131385;23;20263;-84
2023/06/27 15:06:29;;;;;;;1.88;1.70;;;;;;;26.66;25.07;97404.94;6129384;23;20504;-85
2023/06/27 15:08:56;;;;;;;3.00;1.23;;;;;;;26.84;25.41;97432.09;6137442;23;20206;-83
2023/06/27 15:11:21;;;;;;;2.40;1.50;;;;;;;26.75;25.86;97423.50;6110139;23;20259;-85
2023/06/27 15:13:47;;;;;;;2.08;1.30;;;;;;;26.73;25.87;97428.38;6109377;23;20332;-85
2023/06/27 15:16:14;;;;;;;2.03;1.17;;;;;;;26.70;26.13;97426.44;6136315;23;20241;-84
2023/06/27 15:18:40;;;;;;;1.77;1.30;;;;;;;26.56;25.72;97405.44;6114490;23;20383;-85
2023/06/27 15:21:06;;;;;;;2.58;1.30;;;;;;;26.56;25.94;97407.31;6111413;23;20072;-84
2023/06/27 15:23:31;;;;;;;1.67;1.20;;;;;;;26.50;26.25;97402.25;6101894;23;20321;-83
2023/06/27 15:26:00;;;;;;;3.55;1.50;;;;;;;26.63;25.53;97418.22;6162789;23;20051;-84
2023/06/27 15:28:25;;;;;;;2.75;1.42;;;;;;;26.37;27.06;97410.66;6143088;23;20360;-83
2023/06/27 15:30:51;;;;;;;1.50;1.40;;;;;;;26.35;27.45;97425.13;6159256;23;20468;-85
2023/06/27 15:33:16;;;;;;;1.80;1.10;;;;;;;26.48;26.54;97419.75;6143768;23;20360;-84
2023/06/27 15:35:41;;;;;;;2.78;1.52;;;;;;;26.52;26.47;97415.25;6161463;22;20848;-83
2023/06/27 15:38:10;;;;;;;3.05;1.65;;;;;;;26.42;27.29;97419.19;6138755;22;20084;-85
2023/06/27 15:40:37;;;;;;;2.28;1.50;;;;;;;26.54;26.09;97421.03;6137544;22;20080;-85
2023/06/27 15:43:02;;;;;;;1.35;1.20;;;;;;;26.51;26.52;97425.16;6188023;22;20068;-84
2023/06/27 15:45:28;;;;;;;1.77;1.50;;;;;;;26.39;26.42;97411.91;6132345;22;20252;-84
2023/06/27 15:47:53;;;;;;;2.13;1.42;;;;;;;26.13;28.25;97420.34;6193726;22;20326;-83
2023/06/27 15:50:19;;;;;;;3.35;1.50;;;;;;;26.27;27.64;97403.94;6156646;22;20320;-85
2023/06/27 15:52:44;;;;;;;1.30;1.20;;;;;;;26.51;26.61;97408.34;6162110;23;20245;-83
2023/06/27 15:55:09;;;;;;;2.88;1.77;;;;;;;26.55;27.05;97401.22;6102629;23;20190;-84
2023/06/27 15:57:35;;;;;;;2.38;1.48;;;;;;;26.54;26.66;97395.13;6100933;23;20513;-83
2023/06/27 16:00:01;;;;;;;2.13;1.83;;;;;;;26.64;27.24;97391.16;6105875;23;20288;-84
2023/06/27 16:02:26;;;;;;;1.67;1.10;;;;;;;26.70;26.12;97387.13;6130031;23;20350;-85
2023/06/27 16:04:51;;;;;;;3.40;1.45;;;;;;;26.68;26.54;97369.88;6129794;23;20231;-84
2023/06/27 16:07:18;;;;;;;1.90;1.40;;;;;;;26.64;27.48;97374.38;6094903;23;20306;-84
2023/06/27 16:09:44;;;;;;;2.00;1.50;;;;;;;26.78;26.93;97379.28;6107114;23;20162;-84
2023/06/27 16:12:09;;;;;;;2.25;1.35;;;;;;;26.87;25.91;97382.53;6100571;23;20277;-84
2023/06/27 16:14:35;;;;;;;2.22;1.73;;;;;;;26.67;27.07;97382.47;6136117;23;20292;-84
2023/06/27 16:17:01;;;;;;;3.30;1.48;;;;;;;26.63;27.38;97383.50;6099411;23;20308;-85
2023/06/27 16:19:26;;;;;;;2.05;1.38;;;;;;;26.60;26.43;97378.84;6149736;23;20147;-81
2023/06/27 16:21:52;;;;;;;1.83;1.20;;;;;;;26.71;26.80;97391.34;6124704;23;20555;-84
2023/06/27 16:24:17;;;;;;;2.55;1.27;;;;;;;26.85;27.31;97385.56;6159821;23;20194;-85
2023/06/27 16:26:43;;;;;;;1.77;1.33;;;;;;;26.82;26.86;97385.47;6098793;23;20314;-84
2023/06/27 16:29:09;;;;;;;3.08;1.60;;;;;;;26.90;26.75;97389.84;6101844;23;20334;-84
2023/06/27 16:31:35;;;;;;;3.90;1.33;;;;;;;27.01;27.14;97382.88;6124671;23;20166;-84
2023/06/27 16:34:00;;;;;;;2.25;1.30;;;;;;;26.99;26.71;97376.31;6104611;23;20296;-84
2023/06/27 16:36:26;;;;;;;1.98;1.17;;;;;;;26.79;26.65;97346.88;6134301;22;20122;-84
2023/06/27 16:38:51;;;;;;;3.60;1.50;;;;;;;26.93;26.25;97364.34;6104640;23;20011;-85
2023/06/27 16:41:17;;;;;;;1.45;1.00;;;;;;;26.82;27.15;97356.06;6089188;23;20343;-84
2023/06/27 16:43:42;;;;;;;4.50;1.73;;;;;;;26.85;27.41;97385.56;6122705;23;20339;-84
2023/06/27 16:46:07;;;;;;;2.03;1.58;;;;;;;26.88;27.09;97384.09;6091761;23;20074;-85
2023/06/27 16:48:33;;;;;;;2.90;1.50;;;;;;;26.57;27.68;97366.16;6088611;23;20185;-85
2023/06/27 16:50:58;;;;;;;1.58;1.05;;;;;;;26.56;27.78;97384.06;6090884;23;20397;-84
2023/06/27 16:53:24;;;;;;;2.63;1.50;;;;;;;26.55;28.64;97366.50;6093024;23;20222;-84
2023/06/27 16:55:49;;;;;;;3.22;1.40;;;;;;;26.65;27.47;97365.25;6097573;23;20221;-83
2023/06/27 16:58:15;;;;;;;3.70;1.67;;;;;;;26.47;27.25;97349.53;6089549;23;20168;-86
2023/06/27 17:00:41;;;;;;;1.88;1.35;;;;;;;26.61;25.99;97364.34;6127316;23;20222;-85
2023/06/27 17:03:07;;;;;;;2.50;1.10;;;;;;;26.63;25.97;97373.59;6093472;23;20195;-81
2023/06/27 17:05:33;;;;;;;3.25;1.17;;;;;;;26.20;27.15;97347.69;6063642;23;20264;-84
2023/06/27 17:07:59;;;;;;;1.48;1.20;;;;;;;26.36;27.19;97361.84;6091136;23;20275;-85
2023/06/27 17:10:25;;;;;;;2.13;1.48;;;;;;;26.44;27.73;97376.13;6097579;23;20362;-84
2023/06/27 17:12:51;;;;;;;3.72;1.70;;;;;;;26.35;27.50;97352.28;6099981;23;20318;-85
2023/06/27 17:15:16;;;;;;;4.60;1.45;;;;;;;26.44;27.44;97352.91;6066541;23;20337;-85
2023/06/27 17:17:42;;;;;;;3.58;1.30;;;;;;;26.56;26.85;97365.38;6070760;23;20335;-84
2023/06/27 17:20:08;;;;;;;3.10;1.40;;;;;;;26.48;27.94;97367.09;6128101;23;20163;-84